Time;durP1;ratioP1;P1;durP2;ratioP2;P2;SDS_P1;SDS_P2;PMS_P1;PMS_P2;Temp;Humidity;BMP_temperature;BMP_pressure;BME280_temperature;BME280_humidity;BME280_pressure;Samples;Min_cycle;Max_cycle;Signal;HPM_P1;HPM_P2
2022/04/04 00:00:19;;;;;;;9.20;8.30;;;;;21.50;100771.00;;;;2079061;28;20287;-46
2022/04/04 00:01:19;;;;;;;9.30;8.03;;;;;21.50;100762.00;;;;2079100;28;20217;-46
2022/04/04 00:02:20;;;;;;;9.60;7.97;;;;;21.50;100766.00;;;;2078940;28;20721;-46
2022/04/04 00:03:20;;;;;;;9.17;8.20;;;;;21.50;100770.00;;;;2079009;28;20783;-46
2022/04/04 00:04:20;;;;;;;10.17;7.70;;;;;21.50;100774.00;;;;2078839;28;20225;-46
2022/04/04 00:05:21;;;;;;;9.73;8.73;;;;;21.50;100778.00;;;;2078320;28;21735;-46
2022/04/04 00:06:21;;;;;;;8.03;7.23;;;;;21.50;100763.00;;;;2078767;28;20217;-46
2022/04/04 00:07:22;;;;;;;10.00;8.07;;;;;21.40;100765.00;;;;2078521;28;20233;-46
2022/04/04 00:08:22;;;;;;;8.57;7.73;;;;;21.50;100772.00;;;;2070958;28;20217;-46
2022/04/04 00:09:22;;;;;;;8.53;7.67;;;;;21.40;100767.00;;;;2078373;28;20225;-46
2022/04/04 00:10:23;;;;;;;8.03;7.23;;;;;21.40;100763.00;;;;2071032;28;20709;-46
2022/04/04 00:11:23;;;;;;;7.70;6.80;;;;;21.40;100759.00;;;;2070986;28;20880;-47
2022/04/04 00:12:23;;;;;;;8.00;7.20;;;;;21.40;100764.00;;;;2077016;28;20288;-46
2022/04/04 00:13:24;;;;;;;8.37;7.43;;;;;21.40;100761.00;;;;2078892;28;20223;-46
2022/04/04 00:14:24;;;;;;;9.13;7.20;;;;;21.40;100764.00;;;;2078720;28;20210;-46
2022/04/04 00:15:24;;;;;;;8.10;7.30;;;;;21.40;100758.00;;;;2078444;28;20256;-47
2022/04/04 00:16:25;;;;;;;8.63;7.40;;;;;21.40;100753.00;;;;2078991;28;20217;-47
2022/04/04 00:17:25;;;;;;;8.57;7.10;;;;;21.40;100758.00;;;;2072022;28;20280;-46
2022/04/04 00:18:25;;;;;;;7.47;6.33;;;;;21.40;100757.00;;;;2077634;28;20304;-46
2022/04/04 00:19:26;;;;;;;6.90;6.20;;;;;21.30;100759.00;;;;2070123;28;20218;-46
2022/04/04 00:20:28;;;;;;;6.90;6.20;;;;;21.40;100757.00;;;;2076227;28;20720;-46
2022/04/04 00:21:29;;;;;;;7.28;6.57;;;;;21.40;100760.00;;;;2070913;28;20210;-46
2022/04/04 00:22:29;;;;;;;7.47;6.67;;;;;21.40;100760.00;;;;2070865;28;20301;-46
2022/04/04 00:23:30;;;;;;;8.10;6.40;;;;;21.40;100757.00;;;;2071004;28;20214;-45
2022/04/04 00:24:30;;;;;;;7.33;6.27;;;;;21.40;100753.00;;;;2070859;28;20241;-46
2022/04/04 00:25:31;;;;;;;6.73;5.87;;;;;21.40;100753.00;;;;2070258;28;20222;-46
2022/04/04 00:26:31;;;;;;;7.27;6.57;;;;;21.40;100748.00;;;;2069968;28;20297;-45
2022/04/04 00:27:31;;;;;;;7.80;6.47;;;;;21.30;100754.00;;;;2070109;28;20214;-46
2022/04/04 00:28:32;;;;;;;6.93;6.23;;;;;21.30;100757.00;;;;2070767;28;20305;-46
2022/04/04 00:29:32;;;;;;;7.27;5.70;;;;;21.40;100751.00;;;;2073794;28;20221;-47
2022/04/04 00:30:33;;;;;;;6.70;6.10;;;;;21.30;100752.00;;;;2070301;28;20210;-46
2022/04/04 00:31:33;;;;;;;7.23;6.30;;;;;21.30;100753.00;;;;2075672;28;20217;-46
2022/04/04 00:32:36;;;;;;;6.50;5.90;;;;;21.30;100750.00;;;;2073614;28;20210;-45
2022/04/04 00:33:36;;;;;;;7.78;6.97;;;;;21.30;100749.00;;;;2073152;28;20213;-48
2022/04/04 00:34:37;;;;;;;6.47;5.57;;;;;21.30;100746.00;;;;2074871;28;20221;-46
2022/04/04 00:35:37;;;;;;;7.23;6.47;;;;;21.30;100749.00;;;;2070524;28;20218;-48
2022/04/04 00:36:39;;;;;;;6.30;5.70;;;;;21.30;100747.00;;;;2078422;28;20209;-46
2022/04/04 00:37:39;;;;;;;6.65;6.03;;;;;21.30;100752.00;;;;2075248;28;20222;-45
2022/04/04 00:38:39;;;;;;;6.47;5.87;;;;;21.30;100749.00;;;;2073523;28;20748;-46
2022/04/04 00:39:40;;;;;;;6.80;5.80;;;;;21.30;100745.00;;;;2070445;28;20880;-48
2022/04/04 00:40:42;;;;;;;6.30;5.70;;;;;21.30;100742.00;;;;2070718;28;20218;-47
2022/04/04 00:41:45;;;;;;;7.65;5.93;;;;;21.30;100745.00;;;;2070605;28;20237;-47
2022/04/04 00:42:46;;;;;;;5.90;5.30;;;;;21.30;100736.00;;;;2070745;28;20206;-46
2022/04/04 00:43:50;;;;;;;5.93;5.23;;;;;21.30;100742.00;;;;2070895;28;20220;-46
2022/04/04 00:44:51;;;;;;;6.30;5.70;;;;;21.30;100748.00;;;;2070479;28;20222;-47
2022/04/04 00:45:51;;;;;;;5.90;5.33;;;;;21.30;100733.00;;;;2070062;28;20245;-46
2022/04/04 00:46:52;;;;;;;6.03;5.43;;;;;21.30;100734.00;;;;2070791;28;20445;-47
2022/04/04 00:47:52;;;;;;;7.00;5.80;;;;;21.30;100738.00;;;;2070578;28;20206;-47
2022/04/04 00:48:52;;;;;;;6.37;5.70;;;;;21.30;100730.00;;;;2070351;28;20284;-46
2022/04/04 00:49:53;;;;;;;6.53;5.83;;;;;21.30;100730.00;;;;2068834;28;20297;-47
2022/04/04 00:50:54;;;;;;;6.20;5.60;;;;;21.30;100727.00;;;;2070492;28;20214;-46
2022/04/04 00:51:55;;;;;;;6.63;5.90;;;;;21.20;100722.00;;;;2070653;28;20202;-47
2022/04/04 00:52:55;;;;;;;5.40;4.90;;;;;21.20;100723.00;;;;2070627;28;20528;-47
2022/04/04 00:53:55;;;;;;;6.13;5.30;;;;;21.30;100733.00;;;;2070641;28;20450;-47
2022/04/04 00:54:55;;;;;;;6.53;5.80;;;;;21.20;100731.00;;;;2074835;28;20213;-47
2022/04/04 00:55:56;;;;;;;6.93;5.47;;;;;21.20;100721.00;;;;2077671;28;20308;-47
2022/04/04 00:56:56;;;;;;;5.23;4.73;;;;;21.30;100729.00;;;;2078393;28;20216;-47
2022/04/04 00:57:57;;;;;;;5.13;4.63;;;;;21.20;100731.00;;;;2078683;28;20217;-47
2022/04/04 00:58:57;;;;;;;5.80;5.20;;;;;21.20;100715.00;;;;2078487;28;20573;-47
2022/04/04 00:59:57;;;;;;;5.03;4.63;;;;;21.20;100721.00;;;;2077755;28;20573;-47
2022/04/04 01:00:58;;;;;;;7.07;5.40;;;;;21.20;100719.00;;;;2078098;28;20220;-47
2022/04/04 01:01:58;;;;;;;5.90;5.40;;;;;21.20;100720.00;;;;2077960;28;20213;-47
2022/04/04 01:02:59;;;;;;;6.07;5.40;;;;;21.20;100720.00;;;;2077933;28;20209;-46
2022/04/04 01:03:59;;;;;;;5.00;4.50;;;;;21.20;100722.00;;;;2078787;28;20206;-47
2022/04/04 01:05:00;;;;;;;5.73;5.10;;;;;21.20;100710.00;;;;2075435;28;20233;-47
2022/04/04 01:06:00;;;;;;;5.93;5.37;;;;;21.20;100715.00;;;;2069286;28;20241;-47
2022/04/04 01:07:01;;;;;;;4.90;4.40;;;;;21.20;100711.00;;;;2070747;28;22964;-47
2022/04/04 01:08:02;;;;;;;6.60;5.20;;;;;21.20;100713.00;;;;2070381;28;20569;-47
2022/04/04 01:09:02;;;;;;;5.03;4.53;;;;;21.20;100710.00;;;;2070371;28;20301;-47
2022/04/04 01:10:03;;;;;;;5.30;4.80;;;;;21.20;100716.00;;;;2070417;28;20218;-47
2022/04/04 01:11:03;;;;;;;5.80;5.20;;;;;21.20;100706.00;;;;2070541;28;20453;-47
2022/04/04 01:12:08;;;;;;;5.57;5.07;;;;;21.10;100704.00;;;;2070646;28;20240;-47
2022/04/04 01:13:09;;;;;;;4.78;4.38;;;;;21.10;100702.00;;;;2067941;28;20218;-47
2022/04/04 01:14:10;;;;;;;5.40;4.90;;;;;21.20;100708.00;;;;2070507;28;20218;-47
2022/04/04 01:15:10;;;;;;;5.63;5.13;;;;;21.10;100700.00;;;;2070394;28;20246;-47
2022/04/04 01:16:10;;;;;;;6.60;4.37;;;;;21.10;100700.00;;;;2069822;28;20264;-47
2022/04/04 01:17:11;;;;;;;5.73;4.20;;;;;21.10;100689.00;;;;2070284;28;20222;-47
2022/04/04 01:18:11;;;;;;;4.73;4.33;;;;;21.10;100693.00;;;;2070362;28;20267;-47
2022/04/04 01:19:11;;;;;;;4.97;4.53;;;;;21.10;100679.00;;;;2069984;28;20210;-47
2022/04/04 01:20:12;;;;;;;4.57;4.17;;;;;21.10;100688.00;;;;2070551;28;20644;-47
2022/04/04 01:21:13;;;;;;;4.27;3.87;;;;;21.10;100691.00;;;;2070457;28;20301;-46
2022/04/04 01:22:14;;;;;;;5.00;4.50;;;;;21.10;100681.00;;;;2070577;28;20268;-47
2022/04/04 01:23:14;;;;;;;4.88;4.38;;;;;21.10;100681.00;;;;2070135;28;20222;-51
2022/04/04 01:24:17;;;;;;;5.20;4.60;;;;;21.10;100687.00;;;;2061279;28;20252;-49
2022/04/04 01:25:25;;;;;;;4.95;4.53;;;;;21.10;100684.00;;;;2061563;28;20281;-47
2022/04/04 01:26:25;;;;;;;4.45;4.05;;;;;21.10;100682.00;;;;2069721;28;20217;-47
2022/04/04 01:27:25;;;;;;;4.53;4.13;;;;;21.10;100674.00;;;;2070298;28;20593;-47
2022/04/04 01:28:26;;;;;;;4.43;4.03;;;;;21.10;100675.00;;;;2070395;28;20809;-47
2022/04/04 01:29:26;;;;;;;6.17;4.63;;;;;21.10;100676.00;;;;2070427;28;20733;-46
2022/04/04 01:30:27;;;;;;;4.47;4.07;;;;;21.10;100680.00;;;;2070262;28;20783;-47
2022/04/04 01:31:27;;;;;;;5.00;4.50;;;;;21.10;100677.00;;;;2078569;28;20217;-47
2022/04/04 01:32:27;;;;;;;4.70;4.07;;;;;21.10;100672.00;;;;2078374;28;20255;-46
2022/04/04 01:33:27;;;;;;;4.63;4.20;;;;;21.10;100664.00;;;;2078408;28;20704;-47
2022/04/04 01:34:29;;;;;;;4.33;3.90;;;;;21.10;100671.00;;;;2077474;28;20229;-47
2022/04/04 01:35:29;;;;;;;4.88;4.25;;;;;21.00;100673.00;;;;2075953;28;20206;-46
2022/04/04 01:36:30;;;;;;;4.30;4.00;;;;;21.10;100670.00;;;;2070358;28;20241;-47
2022/04/04 01:37:30;;;;;;;5.63;3.97;;;;;21.00;100679.00;;;;2069539;28;20246;-47
2022/04/04 01:38:30;;;;;;;3.90;3.57;;;;;21.00;100680.00;;;;2069347;28;20217;-46
2022/04/04 01:39:31;;;;;;;4.43;4.03;;;;;21.00;100670.00;;;;2077583;28;20229;-47
2022/04/04 01:40:31;;;;;;;4.37;3.97;;;;;21.00;100667.00;;;;2077763;28;20211;-47
2022/04/04 01:41:31;;;;;;;4.90;4.40;;;;;21.00;100664.00;;;;2077959;28;20240;-47
2022/04/04 01:42:32;;;;;;;4.03;3.57;;;;;21.00;100666.00;;;;2077360;28;20256;-47
2022/04/04 01:43:32;;;;;;;4.60;3.70;;;;;21.00;100667.00;;;;2077847;28;20217;-47
2022/04/04 01:44:33;;;;;;;4.40;4.00;;;;;21.00;100657.00;;;;2077832;28;20271;-46
2022/04/04 01:46:52;;;;;;;4.13;3.72;;;;;21.00;100659.00;;;;2077595;28;20212;-47
2022/04/04 01:47:52;;;;;;;4.53;4.13;;;;;21.00;100661.00;;;;2077736;28;20217;-46
2022/04/04 01:48:58;;;;;;;4.37;3.97;;;;;21.00;100663.00;;;;2074411;28;20215;-47
2022/04/04 01:49:59;;;;;;;4.45;3.90;;;;;21.00;100656.00;;;;2070681;28;20340;-47
2022/04/04 01:50:59;;;;;;;4.57;3.63;;;;;21.00;100655.00;;;;2070430;28;20215;-47
2022/04/04 01:51:59;;;;;;;4.80;4.00;;;;;21.00;100654.00;;;;2070399;28;20305;-47
2022/04/04 01:54:18;;;;;;;4.75;3.88;;;;;21.00;100650.00;;;;2078384;28;20205;-46
2022/04/04 01:55:19;;;;;;;4.40;4.00;;;;;21.00;100650.00;;;;2077159;28;20222;-46
2022/04/04 01:56:19;;;;;;;3.80;3.50;;;;;21.00;100647.00;;;;2072259;28;20209;-47
2022/04/04 01:57:19;;;;;;;4.30;3.60;;;;;21.00;100644.00;;;;2077949;28;20249;-47
2022/04/04 01:58:20;;;;;;;3.37;3.07;;;;;21.00;100642.00;;;;2071120;28;20217;-46
2022/04/04 01:59:20;;;;;;;3.83;3.53;;;;;21.00;100636.00;;;;2071227;28;20301;-47
2022/04/04 02:00:20;;;;;;;4.20;3.10;;;;;21.00;100633.00;;;;2078332;28;20794;-46
2022/04/04 02:01:22;;;;;;;3.77;3.37;;;;;20.90;100636.00;;;;2072403;28;20586;-47
2022/04/04 02:02:22;;;;;;;3.97;3.67;;;;;21.00;100633.00;;;;2074793;28;20221;-47
2022/04/04 02:03:24;;;;;;;4.50;3.60;;;;;20.90;100624.00;;;;2071989;28;20664;-47
2022/04/04 02:04:25;;;;;;;3.40;3.10;;;;;20.90;100621.00;;;;2071927;28;20214;-46
2022/04/04 02:05:25;;;;;;;3.47;3.17;;;;;20.90;100626.00;;;;2071402;28;20724;-47
2022/04/04 02:06:25;;;;;;;4.07;3.50;;;;;20.90;100629.00;;;;2072000;28;20983;-48
2022/04/04 02:07:26;;;;;;;3.80;3.40;;;;;21.00;100621.00;;;;2072043;28;20211;-47
2022/04/04 02:08:26;;;;;;;3.70;3.40;;;;;21.00;100615.00;;;;2073594;28;20225;-47
2022/04/04 02:09:26;;;;;;;3.73;3.43;;;;;21.00;100618.00;;;;2079916;28;20217;-46
2022/04/04 02:10:27;;;;;;;4.03;3.63;;;;;20.90;100618.00;;;;2076518;28;20214;-47
2022/04/04 02:11:27;;;;;;;3.50;3.20;;;;;20.90;100618.00;;;;2078604;28;20206;-47
2022/04/04 02:12:30;;;;;;;4.70;3.63;;;;;20.90;100613.00;;;;2071321;28;20214;-46
2022/04/04 02:13:30;;;;;;;3.47;3.17;;;;;20.90;100612.00;;;;2078367;28;20228;-47
2022/04/04 02:14:31;;;;;;;3.53;3.23;;;;;20.90;100618.00;;;;2076435;28;20234;-47
2022/04/04 02:15:31;;;;;;;3.27;3.07;;;;;20.90;100621.00;;;;2072012;28;20686;-46
2022/04/04 02:16:31;;;;;;;3.20;2.90;;;;;20.90;100617.00;;;;2077953;28;20747;-47
2022/04/04 02:17:32;;;;;;;3.80;3.10;;;;;20.90;100616.00;;;;2077046;28;21120;-46
2022/04/04 02:18:32;;;;;;;3.93;3.20;;;;;20.60;100605.00;;;;2076508;28;20217;-46
2022/04/04 02:19:32;;;;;;;4.17;3.30;;;;;20.90;100604.00;;;;2072194;28;20214;-47
2022/04/04 02:20:33;;;;;;;4.13;3.57;;;;;20.90;100607.00;;;;2078071;28;20205;-47
2022/04/04 02:21:33;;;;;;;3.60;3.30;;;;;20.90;100597.00;;;;2074012;28;20694;-46
2022/04/04 02:22:34;;;;;;;2.97;2.77;;;;;20.90;100612.00;;;;2079985;28;20268;-47
2022/04/04 02:23:34;;;;;;;3.80;2.83;;;;;20.90;100603.00;;;;2076166;28;20217;-46
2022/04/04 02:24:35;;;;;;;3.20;3.00;;;;;20.90;100602.00;;;;2076331;28;20214;-47
2022/04/04 02:25:36;;;;;;;3.83;3.53;;;;;20.90;100591.00;;;;2075361;28;20218;-47
2022/04/04 02:26:37;;;;;;;3.08;2.75;;;;;20.90;100599.00;;;;2076392;28;20714;-47
2022/04/04 02:27:37;;;;;;;3.20;2.90;;;;;20.90;100592.00;;;;2071857;28;20249;-47
2022/04/04 02:28:38;;;;;;;3.30;3.00;;;;;20.90;100595.00;;;;2076769;28;20221;-46
2022/04/04 02:29:38;;;;;;;3.03;2.77;;;;;20.80;100581.00;;;;2074231;28;20214;-46
2022/04/04 02:30:40;;;;;;;3.60;3.30;;;;;20.90;100596.00;;;;2078635;28;20642;-46
2022/04/04 02:31:40;;;;;;;3.85;3.10;;;;;20.80;100588.00;;;;2072709;28;20268;-46
2022/04/04 02:32:40;;;;;;;3.10;2.80;;;;;20.80;100582.00;;;;2079936;28;20287;-47
2022/04/04 02:33:42;;;;;;;3.30;3.00;;;;;20.80;100571.00;;;;2080070;28;20205;-45
2022/04/04 02:34:42;;;;;;;3.03;2.75;;;;;20.80;100574.00;;;;2075300;28;20278;-46
2022/04/04 02:35:43;;;;;;;3.50;2.83;;;;;20.80;100574.00;;;;2074765;28;20249;-46
2022/04/04 02:36:43;;;;;;;3.50;3.17;;;;;20.80;100581.00;;;;2072885;28;20213;-47
2022/04/04 02:37:43;;;;;;;3.50;3.00;;;;;20.80;100581.00;;;;2076107;28;20222;-47
2022/04/04 02:38:44;;;;;;;3.27;2.97;;;;;20.80;100573.00;;;;2073581;28;20702;-46
2022/04/04 02:39:44;;;;;;;3.10;2.80;;;;;20.80;100573.00;;;;2075454;28;20696;-46
2022/04/04 02:40:44;;;;;;;3.43;3.03;;;;;20.80;100567.00;;;;2071906;28;20272;-46
2022/04/04 02:41:45;;;;;;;3.10;2.80;;;;;20.80;100562.00;;;;2073344;28;20364;-46
2022/04/04 02:42:47;;;;;;;3.93;3.43;;;;;20.80;100571.00;;;;2073581;28;20609;-46
2022/04/04 02:43:47;;;;;;;3.30;3.00;;;;;20.80;100566.00;;;;2078339;28;20708;-46
2022/04/04 02:44:47;;;;;;;2.97;2.73;;;;;20.80;100564.00;;;;2075032;28;20346;-46
2022/04/04 02:45:48;;;;;;;3.43;2.90;;;;;20.80;100558.00;;;;2076545;28;20324;-46
2022/04/04 02:46:48;;;;;;;3.10;2.80;;;;;20.80;100562.00;;;;2077435;28;20233;-45
2022/04/04 02:47:49;;;;;;;3.33;3.13;;;;;20.80;100563.00;;;;2079089;28;20223;-46
2022/04/04 02:48:49;;;;;;;3.03;2.80;;;;;20.80;100569.00;;;;2074589;28;20748;-47
2022/04/04 02:49:50;;;;;;;3.27;2.97;;;;;20.80;100559.00;;;;2070846;28;20706;-46
2022/04/04 02:50:51;;;;;;;3.80;3.50;;;;;20.80;100547.00;;;;2071444;28;20229;-46
2022/04/04 02:51:52;;;;;;;3.63;2.80;;;;;20.80;100551.00;;;;2071180;28;20221;-46
2022/04/04 02:52:52;;;;;;;2.92;2.53;;;;;20.80;100545.00;;;;2075744;28;20479;-46
2022/04/04 02:53:53;;;;;;;3.50;3.20;;;;;20.80;100553.00;;;;2077954;28;20605;-46
2022/04/04 02:54:53;;;;;;;2.93;2.73;;;;;20.80;100543.00;;;;2073422;28;20226;-46
2022/04/04 02:57:14;;;;;;;4.03;3.00;;;;;20.80;100538.00;;;;2074751;28;20214;-47
2022/04/04 02:58:14;;;;;;;3.25;2.95;;;;;20.60;100539.00;;;;2073195;28;20690;-45
2022/04/04 02:59:14;;;;;;;2.97;2.60;;;;;20.80;100539.00;;;;2075939;28;20249;-47
2022/04/04 03:00:19;;;;;;;3.50;3.20;;;;;20.80;100539.00;;;;2079134;28;20222;-46
2022/04/04 03:01:20;;;;;;;3.80;3.30;;;;;20.80;100535.00;;;;2078978;28;20297;-46
2022/04/04 03:02:22;;;;;;;2.95;2.70;;;;;20.80;100531.00;;;;2079085;28;20825;-46
2022/04/04 03:03:23;;;;;;;2.97;2.67;;;;;20.70;100527.00;;;;2078181;28;20767;-46
2022/04/04 03:04:24;;;;;;;3.42;3.13;;;;;20.80;100529.00;;;;2072436;28;20218;-47
2022/04/04 03:05:24;;;;;;;3.43;3.07;;;;;20.70;100529.00;;;;2070760;28;20292;-46
2022/04/04 03:06:25;;;;;;;3.07;2.87;;;;;20.80;100526.00;;;;2071235;28;20222;-46
2022/04/04 03:07:25;;;;;;;3.40;3.20;;;;;20.70;100524.00;;;;2071199;28;20245;-46
2022/04/04 03:08:25;;;;;;;2.97;2.73;;;;;20.70;100518.00;;;;2070766;28;20368;-47
2022/04/04 03:09:26;;;;;;;3.20;2.87;;;;;20.70;100527.00;;;;2070278;28;20218;-47
2022/04/04 03:10:26;;;;;;;3.27;2.97;;;;;20.80;100521.00;;;;2069953;28;20225;-47
2022/04/04 03:11:27;;;;;;;3.20;2.90;;;;;20.70;100524.00;;;;2064933;28;20328;-46
2022/04/04 03:12:27;;;;;;;2.97;2.67;;;;;20.70;100528.00;;;;2078609;28;20233;-47
2022/04/04 03:13:27;;;;;;;3.10;2.83;;;;;20.70;100514.00;;;;2075049;28;20233;-47
2022/04/04 03:14:28;;;;;;;3.10;2.80;;;;;20.70;100521.00;;;;2070773;28;20217;-46
2022/04/04 03:15:29;;;;;;;3.13;2.83;;;;;20.70;100525.00;;;;2070504;28;20682;-47
2022/04/04 03:16:29;;;;;;;3.60;3.30;;;;;20.70;100518.00;;;;2073662;28;20450;-47
2022/04/04 03:17:29;;;;;;;3.50;2.90;;;;;20.70;100517.00;;;;2078887;28;20221;-47
2022/04/04 03:18:30;;;;;;;3.30;3.00;;;;;20.70;100521.00;;;;2078680;28;20225;-46
2022/04/04 03:19:30;;;;;;;3.60;3.00;;;;;20.70;100505.00;;;;2078625;28;20292;-47
2022/04/04 03:20:31;;;;;;;4.03;3.60;;;;;20.70;100518.00;;;;2078534;28;20640;-46
2022/04/04 03:21:31;;;;;;;3.10;2.90;;;;;20.70;100511.00;;;;2075889;28;20617;-46
2022/04/04 03:22:31;;;;;;;3.03;2.70;;;;;20.70;100431.00;;;;2070993;28;20252;-47
2022/04/04 03:23:33;;;;;;;3.20;2.90;;;;;20.70;100512.00;;;;2070706;28;20580;-47
2022/04/04 03:24:33;;;;;;;3.30;3.00;;;;;20.70;100507.00;;;;2071181;28;20206;-47
2022/04/04 03:25:33;;;;;;;4.07;3.47;;;;;20.70;100511.00;;;;2070530;28;20886;-46
2022/04/04 03:26:34;;;;;;;3.27;2.97;;;;;20.70;100508.00;;;;2071335;28;20210;-47
2022/04/04 03:27:38;;;;;;;3.17;2.70;;;;;20.60;100490.00;;;;2070684;28;20276;-46
2022/04/04 03:28:38;;;;;;;3.00;2.80;;;;;20.70;100487.00;;;;2069466;28;20314;-47
2022/04/04 03:29:40;;;;;;;3.67;3.37;;;;;20.70;100493.00;;;;2071225;28;20401;-47
2022/04/04 03:30:40;;;;;;;3.17;2.92;;;;;20.70;100503.00;;;;2078261;28;20237;-47
2022/04/04 03:31:40;;;;;;;3.00;2.80;;;;;20.70;100490.00;;;;2078838;28;20256;-46
2022/04/04 03:32:41;;;;;;;3.80;3.40;;;;;20.60;100486.00;;;;2078046;28;20217;-47
2022/04/04 03:33:43;;;;;;;3.60;3.17;;;;;20.70;100476.00;;;;2078017;28;20300;-47
2022/04/04 03:34:44;;;;;;;3.50;3.17;;;;;20.60;100476.00;;;;2078541;28;20281;-47
2022/04/04 03:35:44;;;;;;;3.63;3.33;;;;;20.50;100477.00;;;;2073261;28;20214;-47
2022/04/04 03:36:45;;;;;;;3.10;2.80;;;;;20.60;100474.00;;;;2071465;28;20311;-47
2022/04/04 03:37:48;;;;;;;3.25;2.95;;;;;20.60;100470.00;;;;2071017;28;20222;-47
2022/04/04 03:38:48;;;;;;;3.42;3.13;;;;;20.60;100469.00;;;;2068727;28;20246;-46
2022/04/04 03:39:48;;;;;;;3.37;3.07;;;;;20.60;100471.00;;;;2071050;28;20254;-47
2022/04/04 03:40:49;;;;;;;3.50;3.20;;;;;20.60;100470.00;;;;2071306;28;20555;-47
2022/04/04 03:41:49;;;;;;;3.23;3.00;;;;;20.60;100467.00;;;;2071082;28;20578;-47
2022/04/04 03:42:51;;;;;;;3.73;3.27;;;;;20.60;100467.00;;;;2071173;28;20206;-49
2022/04/04 03:43:51;;;;;;;3.17;2.97;;;;;20.60;100466.00;;;;2071197;28;20690;-47
2022/04/04 03:44:51;;;;;;;5.20;2.87;;;;;20.60;100466.00;;;;2071251;28;20206;-47
2022/04/04 03:45:52;;;;;;;3.40;3.10;;;;;20.60;100452.00;;;;2070693;28;20260;-48
2022/04/04 03:46:52;;;;;;;3.47;3.17;;;;;20.60;100463.00;;;;2071022;28;20214;-47
2022/04/04 03:47:52;;;;;;;2.97;2.77;;;;;20.60;100466.00;;;;2072388;28;20226;-47
2022/04/04 03:48:53;;;;;;;2.77;2.57;;;;;20.60;100458.00;;;;2079242;28;20292;-47
2022/04/04 03:49:53;;;;;;;3.50;3.20;;;;;20.60;100476.00;;;;2079393;28;20625;-46
2022/04/04 03:50:54;;;;;;;3.53;3.23;;;;;20.60;100465.00;;;;2079906;28;20606;-46
2022/04/04 03:51:55;;;;;;;3.58;2.95;;;;;20.60;100453.00;;;;2079286;28;20213;-47
2022/04/04 03:52:55;;;;;;;2.90;2.70;;;;;20.60;100454.00;;;;2079294;28;20213;-47
2022/04/04 03:53:56;;;;;;;3.90;3.30;;;;;20.60;100442.00;;;;2079415;28;20289;-47
2022/04/04 03:54:56;;;;;;;3.30;3.00;;;;;20.60;100452.00;;;;2079054;28;20225;-47
2022/04/04 03:55:56;;;;;;;2.93;2.73;;;;;20.60;100440.00;;;;2070172;28;20233;-46
2022/04/04 03:56:57;;;;;;;3.60;3.30;;;;;20.60;100445.00;;;;2070934;28;20213;-47
2022/04/04 03:57:58;;;;;;;3.60;2.87;;;;;20.60;100433.00;;;;2071046;28;20222;-46
2022/04/04 03:58:58;;;;;;;3.23;3.03;;;;;20.60;100432.00;;;;2071060;28;20207;-46
2022/04/04 03:59:59;;;;;;;3.10;2.80;;;;;20.60;100415.00;;;;2075540;28;20206;-47
2022/04/04 04:00:59;;;;;;;2.80;2.60;;;;;20.60;100421.00;;;;2078949;28;20632;-46
2022/04/04 04:02:00;;;;;;;2.93;2.73;;;;;20.60;100416.00;;;;2078964;28;20217;-46
2022/04/04 04:03:00;;;;;;;3.27;3.07;;;;;20.60;100421.00;;;;2079187;28;20279;-45
2022/04/04 04:04:00;;;;;;;3.30;3.10;;;;;20.60;100429.00;;;;2078962;28;20568;-46
2022/04/04 04:05:01;;;;;;;2.97;2.70;;;;;20.60;100415.00;;;;2079054;28;20217;-45
2022/04/04 04:06:14;;;;;;;3.30;3.00;;;;;20.60;100417.00;;;;2078533;28;20287;-47
2022/04/04 04:07:16;;;;;;;3.25;3.00;;;;;20.60;100416.00;;;;2078310;28;20220;-47
2022/04/04 04:08:16;;;;;;;3.20;2.90;;;;;20.50;100415.00;;;;2079050;28;20268;-48
2022/04/04 04:09:16;;;;;;;3.30;2.97;;;;;20.60;100412.00;;;;2079066;28;20245;-47
2022/04/04 04:10:17;;;;;;;3.00;2.80;;;;;20.60;100411.00;;;;2078967;28;20210;-47
2022/04/04 04:11:17;;;;;;;2.73;2.50;;;;;20.60;100413.00;;;;2079342;28;20221;-47
2022/04/04 04:12:17;;;;;;;3.20;2.97;;;;;20.50;100407.00;;;;2078847;28;20305;-47
2022/04/04 04:13:18;;;;;;;3.07;2.70;;;;;20.50;100409.00;;;;2075309;28;20217;-47
2022/04/04 04:14:19;;;;;;;3.07;2.73;;;;;20.50;100402.00;;;;2078921;28;20236;-47
2022/04/04 04:15:21;;;;;;;3.15;2.85;;;;;20.60;100407.00;;;;2078260;28;20799;-47
2022/04/04 04:16:23;;;;;;;3.00;2.80;;;;;20.50;100406.00;;;;2078646;28;20221;-47
2022/04/04 04:17:24;;;;;;;3.50;2.67;;;;;20.50;100399.00;;;;2078506;28;20245;-46
2022/04/04 04:18:25;;;;;;;3.50;3.00;;;;;20.50;100404.00;;;;2074412;28;20202;-47
2022/04/04 04:20:44;;;;;;;2.88;2.67;;;;;20.50;100401.00;;;;2075498;28;20209;-48
2022/04/04 04:21:44;;;;;;;3.00;2.77;;;;;20.50;100399.00;;;;2073391;28;20217;-48
2022/04/04 04:23:13;;;;;;;2.80;2.60;;;;;20.50;100407.00;;;;2070826;28;20234;-48
2022/04/04 04:24:13;;;;;;;3.33;3.03;;;;;20.50;100391.00;;;;2076124;28;20235;-49
2022/04/04 04:25:16;;;;;;;3.30;3.00;;;;;20.50;100394.00;;;;2078533;28;20981;-48
2022/04/04 04:26:17;;;;;;;4.30;3.03;;;;;20.50;100401.00;;;;2078331;28;20578;-48
2022/04/04 04:27:17;;;;;;;3.10;2.90;;;;;20.50;100401.00;;;;2075830;28;20253;-47
2022/04/04 04:28:18;;;;;;;3.23;2.93;;;;;20.50;100398.00;;;;2071165;28;20637;-47
2022/04/04 04:29:18;;;;;;;3.00;2.80;;;;;20.50;100387.00;;;;2070896;28;20253;-47
2022/04/04 04:30:19;;;;;;;3.40;2.67;;;;;20.50;100391.00;;;;2070575;28;20222;-47
2022/04/04 04:31:20;;;;;;;2.90;2.70;;;;;20.50;100394.00;;;;2070796;28;20268;-48
2022/04/04 04:32:21;;;;;;;2.67;2.47;;;;;20.50;100392.00;;;;2070590;28;20214;-47
2022/04/04 04:33:22;;;;;;;3.50;3.20;;;;;20.50;100384.00;;;;2070488;28;20270;-47
2022/04/04 04:34:22;;;;;;;4.27;2.73;;;;;20.50;100391.00;;;;2070814;28;20694;-47
2022/04/04 04:35:23;;;;;;;2.70;2.50;;;;;20.50;100387.00;;;;2069786;28;20229;-47
2022/04/04 04:36:23;;;;;;;3.53;3.03;;;;;20.50;100388.00;;;;2078186;28;20209;-47
2022/04/04 04:37:23;;;;;;;3.10;2.70;;;;;20.50;100382.00;;;;2077174;28;20279;-48
2022/04/04 04:38:24;;;;;;;3.00;2.80;;;;;20.40;100374.00;;;;2078216;28;20217;-47
2022/04/04 04:39:24;;;;;;;4.00;2.83;;;;;20.40;100370.00;;;;2078254;28;20217;-47
2022/04/04 04:40:25;;;;;;;3.97;3.30;;;;;20.50;100370.00;;;;2077700;28;20256;-47
2022/04/04 04:41:25;;;;;;;3.23;2.93;;;;;20.40;100375.00;;;;2078416;28;20578;-47
2022/04/04 04:42:26;;;;;;;3.00;2.60;;;;;20.40;100376.00;;;;2077150;28;20240;-47
2022/04/04 04:43:26;;;;;;;3.20;2.83;;;;;20.50;100374.00;;;;2078033;28;20216;-47
2022/04/04 04:44:27;;;;;;;3.10;2.80;;;;;20.50;100370.00;;;;2078197;28;20304;-47
2022/04/04 04:45:27;;;;;;;3.47;3.17;;;;;20.50;100374.00;;;;2069433;28;20215;-47
2022/04/04 04:46:28;;;;;;;3.43;3.13;;;;;20.40;100372.00;;;;2069696;28;20214;-47
2022/04/04 04:47:29;;;;;;;2.85;2.65;;;;;20.40;100361.00;;;;2068918;28;20216;-47
2022/04/04 04:48:29;;;;;;;4.80;3.07;;;;;20.40;100357.00;;;;2070084;28;20225;-47
2022/04/04 04:49:32;;;;;;;2.90;2.70;;;;;20.40;100370.00;;;;2070500;28;20956;-47
2022/04/04 04:50:32;;;;;;;3.70;3.17;;;;;20.40;100354.00;;;;2072612;28;20709;-46
2022/04/04 04:51:33;;;;;;;2.90;2.70;;;;;20.40;100358.00;;;;2078864;28;20206;-47
2022/04/04 04:52:33;;;;;;;3.30;3.00;;;;;20.40;100356.00;;;;2078872;28;21019;-47
2022/04/04 04:53:35;;;;;;;2.50;2.20;;;;;20.40;100356.00;;;;2078696;28;20201;-46
2022/04/04 04:54:36;;;;;;;3.45;3.15;;;;;20.40;100344.00;;;;2078456;28;20213;-46
2022/04/04 04:55:36;;;;;;;3.40;3.10;;;;;20.40;100354.00;;;;2078131;28;20213;-46
2022/04/04 04:56:37;;;;;;;3.47;3.17;;;;;20.10;100347.00;;;;2078666;28;20224;-46
2022/04/04 04:57:37;;;;;;;3.07;2.77;;;;;20.40;100343.00;;;;2077913;28;20218;-47
2022/04/04 04:58:38;;;;;;;3.20;3.00;;;;;20.40;100338.00;;;;2069995;28;20297;-48
2022/04/04 04:59:38;;;;;;;3.20;3.00;;;;;20.40;100341.00;;;;2076717;28;20256;-47
2022/04/04 05:00:40;;;;;;;3.17;2.60;;;;;20.40;100340.00;;;;2077806;28;20224;-47
2022/04/04 05:01:41;;;;;;;3.10;2.90;;;;;20.40;100330.00;;;;2078575;28;20734;-47
2022/04/04 05:02:41;;;;;;;3.40;3.10;;;;;20.40;100334.00;;;;2078499;28;20347;-47
2022/04/04 05:03:42;;;;;;;2.93;2.73;;;;;20.40;100341.00;;;;2073070;28;20220;-47
2022/04/04 05:04:42;;;;;;;3.50;3.20;;;;;20.40;100335.00;;;;2078497;28;20588;-46
2022/04/04 05:05:42;;;;;;;3.13;2.93;;;;;20.40;100332.00;;;;2073656;28;20218;-46